sensor_id;sensor_type;location;lat;lon;timestamp;temperature;humidity
64951;DHT22;51482;47.014;7.652;2023-02-26T00:01:32;3.90;99.90
64951;DHT22;51482;47.014;7.652;2023-02-26T00:04:00;3.90;99.90
64951;DHT22;51482;47.014;7.652;2023-02-26T00:06:26;3.90;99.90
64951;DHT22;51482;47.014;7.652;2023-02-26T00:08:52;3.20;99.90
64951;DHT22;51482;47.014;7.652;2023-02-26T00:11:18;3.70;99.90
64951;DHT22;51482;47.014;7.652;2023-02-26T00:13:44;3.10;99.90
64951;DHT22;51482;47.014;7.652;2023-02-26T00:16:25;3.10;99.90
64951;DHT22;51482;47.014;7.652;2023-02-26T00:18:51;3.50;99.90
64951;DHT22;51482;47.014;7.652;2023-02-26T00:21:18;2.80;99.90
64951;DHT22;51482;47.014;7.652;2023-02-26T00:23:44;2.90;99.90
64951;DHT22;51482;47.014;7.652;2023-02-26T00:26:10;2.90;99.90
64951;DHT22;51482;47.014;7.652;2023-02-26T00:28:36;3.50;99.90
64951;DHT22;51482;47.014;7.652;2023-02-26T00:31:02;2.90;99.90
64951;DHT22;51482;47.014;7.652;2023-02-26T00:33:28;2.80;99.90
64951;DHT22;51482;47.014;7.652;2023-02-26T00:36:00;3.20;99.90
64951;DHT22;51482;47.014;7.652;2023-02-26T00:38:31;3.20;99.90
64951;DHT22;51482;47.014;7.652;2023-02-26T00:40:59;3.00;99.90
64951;DHT22;51482;47.014;7.652;2023-02-26T00:43:25;2.60;99.90
64951;DHT22;51482;47.014;7.652;2023-02-26T00:49:17;2.50;99.90
64951;DHT22;51482;47.014;7.652;2023-02-26T00:51:54;3.00;99.90
64951;DHT22;51482;47.014;7.652;2023-02-26T00:54:23;2.50;99.90
64951;DHT22;51482;47.014;7.652;2023-02-26T00:56:51;3.00;99.90
64951;DHT22;51482;47.014;7.652;2023-02-26T00:59:17;3.10;99.90
64951;DHT22;51482;47.014;7.652;2023-02-26T01:01:43;2.80;99.90
64951;DHT22;51482;47.014;7.652;2023-02-26T01:04:10;2.10;99.90
64951;DHT22;51482;47.014;7.652;2023-02-26T01:06:41;2.20;99.90
64951;DHT22;51482;47.014;7.652;2023-02-26T01:09:16;2.80;99.90
64951;DHT22;51482;47.014;7.652;2023-02-26T01:11:45;2.10;99.90
64951;DHT22;51482;47.014;7.652;2023-02-26T01:14:11;2.10;99.90
64951;DHT22;51482;47.014;7.652;2023-02-26T01:16:47;2.10;99.90
64951;DHT22;51482;47.014;7.652;2023-02-26T01:22:36;2.90;99.90
64951;DHT22;51482;47.014;7.652;2023-02-26T01:25:09;2.60;99.90
64951;DHT22;51482;47.014;7.652;2023-02-26T01:27:35;2.00;99.90
64951;DHT22;51482;47.014;7.652;2023-02-26T01:30:01;1.70;99.90
64951;DHT22;51482;47.014;7.652;2023-02-26T01:32:44;2.20;99.90
64951;DHT22;51482;47.014;7.652;2023-02-26T01:35:36;1.90;99.90
64951;DHT22;51482;47.014;7.652;2023-02-26T01:38:23;2.60;99.90
64951;DHT22;51482;47.014;7.652;2023-02-26T01:43:46;2.60;99.90
64951;DHT22;51482;47.014;7.652;2023-02-26T01:46:47;2.40;99.90
64951;DHT22;51482;47.014;7.652;2023-02-26T01:49:15;1.90;99.90
64951;DHT22;51482;47.014;7.652;2023-02-26T01:51:47;1.90;99.90
64951;DHT22;51482;47.014;7.652;2023-02-26T01:54:16;2.40;99.90
64951;DHT22;51482;47.014;7.652;2023-02-26T01:56:43;2.30;99.90
64951;DHT22;51482;47.014;7.652;2023-02-26T01:59:12;1.50;99.90
64951;DHT22;51482;47.014;7.652;2023-02-26T02:01:39;1.80;99.90
64951;DHT22;51482;47.014;7.652;2023-02-26T02:04:09;1.80;99.90
64951;DHT22;51482;47.014;7.652;2023-02-26T02:06:35;2.30;99.90
64951;DHT22;51482;47.014;7.652;2023-02-26T02:09:05;2.10;99.90
64951;DHT22;51482;47.014;7.652;2023-02-26T02:11:31;2.30;99.90
64951;DHT22;51482;47.014;7.652;2023-02-26T02:14:42;2.30;99.90
64951;DHT22;51482;47.014;7.652;2023-02-26T02:17:23;2.20;99.90
64951;DHT22;51482;47.014;7.652;2023-02-26T02:31:35;1.50;99.90
64951;DHT22;51482;47.014;7.652;2023-02-26T02:36:57;1.50;99.90
64951;DHT22;51482;47.014;7.652;2023-02-26T02:39:28;2.20;99.90
64951;DHT22;51482;47.014;7.652;2023-02-26T02:42:22;2.00;99.90
64951;DHT22;51482;47.014;7.652;2023-02-26T02:45:12;1.90;99.90
64951;DHT22;51482;47.014;7.652;2023-02-26T02:47:41;1.40;99.90
64951;DHT22;51482;47.014;7.652;2023-02-26T02:50:13;1.40;99.90
64951;DHT22;51482;47.014;7.652;2023-02-26T02:52:43;1.90;99.90
64951;DHT22;51482;47.014;7.652;2023-02-26T02:55:18;1.50;99.90
64951;DHT22;51482;47.014;7.652;2023-02-26T02:57:57;1.40;99.90
64951;DHT22;51482;47.014;7.652;2023-02-26T03:00:26;1.80;99.90
64951;DHT22;51482;47.014;7.652;2023-02-26T03:03:19;1.90;99.90
64951;DHT22;51482;47.014;7.652;2023-02-26T03:05:49;1.70;99.90
64951;DHT22;51482;47.014;7.652;2023-02-26T03:08:17;1.70;99.90
64951;DHT22;51482;47.014;7.652;2023-02-26T03:10:45;1.70;99.90
64951;DHT22;51482;47.014;7.652;2023-02-26T03:13:19;0.50;99.90
64951;DHT22;51482;47.014;7.652;2023-02-26T03:15:58;1.10;99.90
64951;DHT22;51482;47.014;7.652;2023-02-26T03:21:38;1.30;99.90
64951;DHT22;51482;47.014;7.652;2023-02-26T03:24:16;1.10;99.90
64951;DHT22;51482;47.014;7.652;2023-02-26T03:26:47;1.60;99.90
64951;DHT22;51482;47.014;7.652;2023-02-26T03:34:25;0.90;99.90
64951;DHT22;51482;47.014;7.652;2023-02-26T03:37:13;1.20;99.90
64951;DHT22;51482;47.014;7.652;2023-02-26T03:39:46;0.60;99.90
64951;DHT22;51482;47.014;7.652;2023-02-26T03:44:53;0.70;99.90
64951;DHT22;51482;47.014;7.652;2023-02-26T03:47:20;0.70;99.90
64951;DHT22;51482;47.014;7.652;2023-02-26T03:52:35;0.90;99.90
64951;DHT22;51482;47.014;7.652;2023-02-26T03:55:06;0.70;99.90
64951;DHT22;51482;47.014;7.652;2023-02-26T03:57:33;1.30;99.90
64951;DHT22;51482;47.014;7.652;2023-02-26T03:59:58;1.20;99.90
64951;DHT22;51482;47.014;7.652;2023-02-26T04:02:29;1.10;99.90
64951;DHT22;51482;47.014;7.652;2023-02-26T04:05:02;1.10;99.90
64951;DHT22;51482;47.014;7.652;2023-02-26T04:07:29;1.20;99.90
64951;DHT22;51482;47.014;7.652;2023-02-26T04:09:55;0.50;99.90
64951;DHT22;51482;47.014;7.652;2023-02-26T04:12:22;0.50;99.90
64951;DHT22;51482;47.014;7.652;2023-02-26T04:14:49;1.20;99.90
64951;DHT22;51482;47.014;7.652;2023-02-26T04:17:14;1.00;99.90
64951;DHT22;51482;47.014;7.652;2023-02-26T04:19:40;0.70;99.90
64951;DHT22;51482;47.014;7.652;2023-02-26T04:22:06;1.10;99.90
64951;DHT22;51482;47.014;7.652;2023-02-26T04:24:31;1.10;99.90
64951;DHT22;51482;47.014;7.652;2023-02-26T04:26:57;1.00;99.90
64951;DHT22;51482;47.014;7.652;2023-02-26T04:29:22;0.70;99.90
64951;DHT22;51482;47.014;7.652;2023-02-26T04:31:48;1.00;99.90
64951;DHT22;51482;47.014;7.652;2023-02-26T04:34:13;1.30;99.90
64951;DHT22;51482;47.014;7.652;2023-02-26T04:36:39;1.00;99.90
64951;DHT22;51482;47.014;7.652;2023-02-26T04:39:04;1.00;99.90
64951;DHT22;51482;47.014;7.652;2023-02-26T04:41:30;0.90;99.90
64951;DHT22;51482;47.014;7.652;2023-02-26T04:43:55;1.20;99.90
64951;DHT22;51482;47.014;7.652;2023-02-26T04:46:21;1.00;99.90
64951;DHT22;51482;47.014;7.652;2023-02-26T04:48:47;1.00;99.90
64951;DHT22;51482;47.014;7.652;2023-02-26T04:51:13;0.90;99.90
64951;DHT22;51482;47.014;7.652;2023-02-26T04:53:38;1.00;99.90
64951;DHT22;51482;47.014;7.652;2023-02-26T04:56:04;0.90;99.90
64951;DHT22;51482;47.014;7.652;2023-02-26T04:58:30;0.30;99.90
64951;DHT22;51482;47.014;7.652;2023-02-26T05:00:56;0.30;99.90
64951;DHT22;51482;47.014;7.652;2023-02-26T05:03:22;0.80;99.90
64951;DHT22;51482;47.014;7.652;2023-02-26T05:05:48;0.20;99.90
64951;DHT22;51482;47.014;7.652;2023-02-26T05:08:13;0.40;99.90
64951;DHT22;51482;47.014;7.652;2023-02-26T05:10:39;0.60;99.90
64951;DHT22;51482;47.014;7.652;2023-02-26T05:13:04;0.70;99.90
64951;DHT22;51482;47.014;7.652;2023-02-26T05:15:31;0.60;99.90
64951;DHT22;51482;47.014;7.652;2023-02-26T05:17:56;-0.10;99.90
64951;DHT22;51482;47.014;7.652;2023-02-26T05:20:22;0.50;99.90
64951;DHT22;51482;47.014;7.652;2023-02-26T05:22:47;0.50;99.90
64951;DHT22;51482;47.014;7.652;2023-02-26T05:25:13;-0.30;99.90
64951;DHT22;51482;47.014;7.652;2023-02-26T05:27:40;0.40;99.90
64951;DHT22;51482;47.014;7.652;2023-02-26T05:30:10;0.50;99.90
64951;DHT22;51482;47.014;7.652;2023-02-26T05:32:36;-0.20;99.90
64951;DHT22;51482;47.014;7.652;2023-02-26T05:35:02;0.50;99.90
64951;DHT22;51482;47.014;7.652;2023-02-26T05:37:28;-0.60;99.90
64951;DHT22;51482;47.014;7.652;2023-02-26T05:39:54;0.40;99.90
64951;DHT22;51482;47.014;7.652;2023-02-26T05:42:19;0.20;99.90
64951;DHT22;51482;47.014;7.652;2023-02-26T05:44:45;0.30;99.90
64951;DHT22;51482;47.014;7.652;2023-02-26T05:47:10;-0.70;99.90
64951;DHT22;51482;47.014;7.652;2023-02-26T05:49:36;0.50;99.90
64951;DHT22;51482;47.014;7.652;2023-02-26T05:52:02;-0.20;99.90
64951;DHT22;51482;47.014;7.652;2023-02-26T05:54:27;0.30;99.90
64951;DHT22;51482;47.014;7.652;2023-02-26T05:56:53;-0.20;99.90
64951;DHT22;51482;47.014;7.652;2023-02-26T05:59:18;-0.60;99.90
64951;DHT22;51482;47.014;7.652;2023-02-26T06:01:45;0.00;99.90
64951;DHT22;51482;47.014;7.652;2023-02-26T06:04:10;0.30;99.90
64951;DHT22;51482;47.014;7.652;2023-02-26T06:06:36;0.00;99.90
64951;DHT22;51482;47.014;7.652;2023-02-26T06:09:02;-0.20;99.90
64951;DHT22;51482;47.014;7.652;2023-02-26T06:11:28;-0.50;99.90
64951;DHT22;51482;47.014;7.652;2023-02-26T06:13:54;0.10;99.90
64951;DHT22;51482;47.014;7.652;2023-02-26T06:16:20;0.60;99.90
64951;DHT22;51482;47.014;7.652;2023-02-26T06:18:46;0.30;99.90
64951;DHT22;51482;47.014;7.652;2023-02-26T06:21:12;0.20;99.90
64951;DHT22;51482;47.014;7.652;2023-02-26T06:23:38;0.20;99.90
64951;DHT22;51482;47.014;7.652;2023-02-26T06:26:04;0.30;99.90
64951;DHT22;51482;47.014;7.652;2023-02-26T06:28:29;0.00;99.90
64951;DHT22;51482;47.014;7.652;2023-02-26T06:30:55;-0.70;99.90
64951;DHT22;51482;47.014;7.652;2023-02-26T06:33:21;-0.50;99.90
64951;DHT22;51482;47.014;7.652;2023-02-26T06:35:46;-0.10;99.90
64951;DHT22;51482;47.014;7.652;2023-02-26T06:38:12;-0.60;99.90
64951;DHT22;51482;47.014;7.652;2023-02-26T06:40:38;0.00;99.90
64951;DHT22;51482;47.014;7.652;2023-02-26T06:43:04;-0.60;99.90
64951;DHT22;51482;47.014;7.652;2023-02-26T06:45:29;0.00;99.90
64951;DHT22;51482;47.014;7.652;2023-02-26T06:47:55;-0.60;99.90
64951;DHT22;51482;47.014;7.652;2023-02-26T06:50:21;0.10;99.90
64951;DHT22;51482;47.014;7.652;2023-02-26T06:52:46;-0.30;99.90
64951;DHT22;51482;47.014;7.652;2023-02-26T06:55:12;-0.40;99.90
64951;DHT22;51482;47.014;7.652;2023-02-26T06:57:38;-0.50;99.90
64951;DHT22;51482;47.014;7.652;2023-02-26T07:00:05;-0.10;99.90
64951;DHT22;51482;47.014;7.652;2023-02-26T07:02:31;-0.50;99.90
64951;DHT22;51482;47.014;7.652;2023-02-26T07:04:56;-1.00;99.90
64951;DHT22;51482;47.014;7.652;2023-02-26T07:07:22;0.20;99.90
64951;DHT22;51482;47.014;7.652;2023-02-26T07:09:47;0.10;99.90
64951;DHT22;51482;47.014;7.652;2023-02-26T07:12:13;0.10;99.90
64951;DHT22;51482;47.014;7.652;2023-02-26T07:14:39;0.10;99.90
64951;DHT22;51482;47.014;7.652;2023-02-26T07:17:07;0.10;99.90
64951;DHT22;51482;47.014;7.652;2023-02-26T07:19:33;-0.40;99.90
64951;DHT22;51482;47.014;7.652;2023-02-26T07:21:59;0.10;99.90
64951;DHT22;51482;47.014;7.652;2023-02-26T07:24:26;0.30;99.90
64951;DHT22;51482;47.014;7.652;2023-02-26T07:26:51;-0.20;99.90
64951;DHT22;51482;47.014;7.652;2023-02-26T07:29:17;0.30;99.90
64951;DHT22;51482;47.014;7.652;2023-02-26T07:31:43;0.60;99.90
64951;DHT22;51482;47.014;7.652;2023-02-26T07:34:09;0.60;99.90
64951;DHT22;51482;47.014;7.652;2023-02-26T07:36:34;0.40;99.90
64951;DHT22;51482;47.014;7.652;2023-02-26T07:39:00;0.40;99.90
64951;DHT22;51482;47.014;7.652;2023-02-26T07:41:25;0.30;99.90
64951;DHT22;51482;47.014;7.652;2023-02-26T07:43:51;-0.10;99.90
64951;DHT22;51482;47.014;7.652;2023-02-26T07:46:16;0.40;99.90
64951;DHT22;51482;47.014;7.652;2023-02-26T07:48:42;-0.20;99.90
64951;DHT22;51482;47.014;7.652;2023-02-26T07:51:08;0.30;99.90
64951;DHT22;51482;47.014;7.652;2023-02-26T07:53:35;-0.20;99.90
64951;DHT22;51482;47.014;7.652;2023-02-26T07:56:01;0.40;99.90
64951;DHT22;51482;47.014;7.652;2023-02-26T07:58:26;0.30;99.90
64951;DHT22;51482;47.014;7.652;2023-02-26T08:00:52;0.30;99.90
64951;DHT22;51482;47.014;7.652;2023-02-26T08:03:18;0.50;99.90
64951;DHT22;51482;47.014;7.652;2023-02-26T08:05:44;-0.60;99.90
64951;DHT22;51482;47.014;7.652;2023-02-26T08:08:10;0.00;99.90
64951;DHT22;51482;47.014;7.652;2023-02-26T08:10:36;0.00;99.90
64951;DHT22;51482;47.014;7.652;2023-02-26T08:13:03;0.10;99.90
64951;DHT22;51482;47.014;7.652;2023-02-26T08:15:29;0.30;99.90
64951;DHT22;51482;47.014;7.652;2023-02-26T08:17:54;-0.40;99.90
64951;DHT22;51482;47.014;7.652;2023-02-26T08:20:21;-0.90;99.90
64951;DHT22;51482;47.014;7.652;2023-02-26T08:22:46;0.20;99.90
64951;DHT22;51482;47.014;7.652;2023-02-26T08:25:12;0.20;99.90
64951;DHT22;51482;47.014;7.652;2023-02-26T08:27:38;0.50;99.90
64951;DHT22;51482;47.014;7.652;2023-02-26T08:30:04;0.50;99.90
64951;DHT22;51482;47.014;7.652;2023-02-26T08:32:30;-0.10;99.90
64951;DHT22;51482;47.014;7.652;2023-02-26T08:34:55;0.40;99.90
64951;DHT22;51482;47.014;7.652;2023-02-26T08:37:21;-0.10;99.90
64951;DHT22;51482;47.014;7.652;2023-02-26T08:39:50;0.50;99.90
64951;DHT22;51482;47.014;7.652;2023-02-26T08:42:16;-0.10;99.90
64951;DHT22;51482;47.014;7.652;2023-02-26T08:44:45;0.20;99.90
64951;DHT22;51482;47.014;7.652;2023-02-26T08:47:10;0.30;99.90
64951;DHT22;51482;47.014;7.652;2023-02-26T08:49:36;-0.10;99.90
64951;DHT22;51482;47.014;7.652;2023-02-26T08:52:02;-0.10;99.90
64951;DHT22;51482;47.014;7.652;2023-02-26T08:54:27;-0.20;99.90
64951;DHT22;51482;47.014;7.652;2023-02-26T08:56:53;0.40;99.90
64951;DHT22;51482;47.014;7.652;2023-02-26T08:59:20;0.50;99.90
64951;DHT22;51482;47.014;7.652;2023-02-26T09:01:46;0.60;99.90
64951;DHT22;51482;47.014;7.652;2023-02-26T09:04:12;0.60;99.90
64951;DHT22;51482;47.014;7.652;2023-02-26T09:06:37;0.80;99.90
64951;DHT22;51482;47.014;7.652;2023-02-26T09:09:03;0.80;99.90
64951;DHT22;51482;47.014;7.652;2023-02-26T09:11:29;1.00;99.90
64951;DHT22;51482;47.014;7.652;2023-02-26T09:13:55;1.00;99.90
64951;DHT22;51482;47.014;7.652;2023-02-26T09:16:23;1.00;99.90
64951;DHT22;51482;47.014;7.652;2023-02-26T09:18:49;1.00;99.90
64951;DHT22;51482;47.014;7.652;2023-02-26T09:21:15;0.90;99.90
64951;DHT22;51482;47.014;7.652;2023-02-26T09:23:41;0.40;99.90
64951;DHT22;51482;47.014;7.652;2023-02-26T09:26:06;0.70;99.90
64951;DHT22;51482;47.014;7.652;2023-02-26T09:28:33;0.80;99.90
64951;DHT22;51482;47.014;7.652;2023-02-26T09:30:59;0.20;99.90
64951;DHT22;51482;47.014;7.652;2023-02-26T09:33:24;0.50;99.90
64951;DHT22;51482;47.014;7.652;2023-02-26T09:35:51;0.10;99.90
64951;DHT22;51482;47.014;7.652;2023-02-26T09:38:17;1.00;99.90
64951;DHT22;51482;47.014;7.652;2023-02-26T09:40:53;1.20;99.90
64951;DHT22;51482;47.014;7.652;2023-02-26T09:49:21;2.00;99.90
64951;DHT22;51482;47.014;7.652;2023-02-26T09:51:51;1.90;99.90
64951;DHT22;51482;47.014;7.652;2023-02-26T09:54:38;1.70;99.90
64951;DHT22;51482;47.014;7.652;2023-02-26T09:57:10;1.50;99.90
64951;DHT22;51482;47.014;7.652;2023-02-26T09:59:38;0.80;99.90
64951;DHT22;51482;47.014;7.652;2023-02-26T10:05:09;1.50;99.90
64951;DHT22;51482;47.014;7.652;2023-02-26T10:10:37;1.40;99.90
64951;DHT22;51482;47.014;7.652;2023-02-26T10:13:05;0.90;99.90
64951;DHT22;51482;47.014;7.652;2023-02-26T10:15:38;1.20;99.90
64951;DHT22;51482;47.014;7.652;2023-02-26T10:18:15;1.10;99.90
64951;DHT22;51482;47.014;7.652;2023-02-26T10:20:55;0.50;99.90
64951;DHT22;51482;47.014;7.652;2023-02-26T10:23:37;0.20;99.90
64951;DHT22;51482;47.014;7.652;2023-02-26T10:32:06;0.70;99.90
64951;DHT22;51482;47.014;7.652;2023-02-26T10:34:50;0.90;99.90
64951;DHT22;51482;47.014;7.652;2023-02-26T10:37:35;0.80;99.90
64951;DHT22;51482;47.014;7.652;2023-02-26T10:40:17;1.10;99.90
64951;DHT22;51482;47.014;7.652;2023-02-26T10:51:32;2.80;99.90
64951;DHT22;51482;47.014;7.652;2023-02-26T10:54:26;1.90;99.90
64951;DHT22;51482;47.014;7.652;2023-02-26T10:56:54;1.90;99.90
64951;DHT22;51482;47.014;7.652;2023-02-26T10:59:19;1.60;99.90
64951;DHT22;51482;47.014;7.652;2023-02-26T11:01:46;2.70;99.90
64951;DHT22;51482;47.014;7.652;2023-02-26T11:04:15;3.10;99.90
64951;DHT22;51482;47.014;7.652;2023-02-26T11:06:58;4.50;99.90
64951;DHT22;51482;47.014;7.652;2023-02-26T11:09:26;3.90;97.40
64951;DHT22;51482;47.014;7.652;2023-02-26T11:11:54;4.80;97.70
64951;DHT22;51482;47.014;7.652;2023-02-26T11:14:21;4.60;95.80
64951;DHT22;51482;47.014;7.652;2023-02-26T11:16:51;3.80;97.00
64951;DHT22;51482;47.014;7.652;2023-02-26T11:19:21;3.20;96.10
64951;DHT22;51482;47.014;7.652;2023-02-26T11:21:49;2.50;96.30
64951;DHT22;51482;47.014;7.652;2023-02-26T11:24:27;1.60;95.90
64951;DHT22;51482;47.014;7.652;2023-02-26T11:26:55;2.20;96.70
64951;DHT22;51482;47.014;7.652;2023-02-26T11:29:21;1.40;95.70
64951;DHT22;51482;47.014;7.652;2023-02-26T11:31:53;2.30;97.10
64951;DHT22;51482;47.014;7.652;2023-02-26T11:34:24;2.20;97.20
64951;DHT22;51482;47.014;7.652;2023-02-26T11:36:52;2.00;98.00
64951;DHT22;51482;47.014;7.652;2023-02-26T11:39:26;2.10;99.20
64951;DHT22;51482;47.014;7.652;2023-02-26T11:41:56;1.50;97.40
64951;DHT22;51482;47.014;7.652;2023-02-26T11:44:39;0.70;96.80
64951;DHT22;51482;47.014;7.652;2023-02-26T11:47:11;0.80;97.00
64951;DHT22;51482;47.014;7.652;2023-02-26T11:49:48;1.00;98.50
64951;DHT22;51482;47.014;7.652;2023-02-26T11:52:34;1.40;97.60
64951;DHT22;51482;47.014;7.652;2023-02-26T11:55:03;1.10;98.40
64951;DHT22;51482;47.014;7.652;2023-02-26T11:57:31;1.20;98.70
64951;DHT22;51482;47.014;7.652;2023-02-26T11:59:59;1.30;98.20
64951;DHT22;51482;47.014;7.652;2023-02-26T12:02:30;1.50;98.80
64951;DHT22;51482;47.014;7.652;2023-02-26T12:04:59;1.40;97.80
64951;DHT22;51482;47.014;7.652;2023-02-26T12:07:26;1.70;98.40
64951;DHT22;51482;47.014;7.652;2023-02-26T12:09:52;2.80;96.20
64951;DHT22;51482;47.014;7.652;2023-02-26T12:12:34;2.90;93.50
64951;DHT22;51482;47.014;7.652;2023-02-26T12:15:24;3.20;92.90
64951;DHT22;51482;47.014;7.652;2023-02-26T12:18:07;3.40;93.20
64951;DHT22;51482;47.014;7.652;2023-02-26T12:21:05;3.60;93.70
64951;DHT22;51482;47.014;7.652;2023-02-26T12:26:34;2.60;95.30
64951;DHT22;51482;47.014;7.652;2023-02-26T12:32:01;1.20;95.90
64951;DHT22;51482;47.014;7.652;2023-02-26T12:37:33;1.70;97.30
64951;DHT22;51482;47.014;7.652;2023-02-26T12:43:10;1.70;96.10
64951;DHT22;51482;47.014;7.652;2023-02-26T13:02:52;0.90;97.20
64951;DHT22;51482;47.014;7.652;2023-02-26T13:05:26;0.90;97.90
64951;DHT22;51482;47.014;7.652;2023-02-26T13:08:02;0.90;98.20
64951;DHT22;51482;47.014;7.652;2023-02-26T13:13:05;0.90;97.40
64951;DHT22;51482;47.014;7.652;2023-02-26T13:18:59;0.70;97.60
64951;DHT22;51482;47.014;7.652;2023-02-26T13:21:34;0.60;98.00
64951;DHT22;51482;47.014;7.652;2023-02-26T13:24:21;1.20;98.00
64951;DHT22;51482;47.014;7.652;2023-02-26T13:26:48;1.20;98.40
64951;DHT22;51482;47.014;7.652;2023-02-26T13:29:23;0.70;99.20
64951;DHT22;51482;47.014;7.652;2023-02-26T13:34:33;0.60;98.70
64951;DHT22;51482;47.014;7.652;2023-02-26T13:37:00;0.90;99.70
64951;DHT22;51482;47.014;7.652;2023-02-26T13:40:03;0.50;99.40
64951;DHT22;51482;47.014;7.652;2023-02-26T13:45:56;0.50;99.90
64951;DHT22;51482;47.014;7.652;2023-02-26T13:51:36;1.30;99.90
64951;DHT22;51482;47.014;7.652;2023-02-26T14:01:28;1.10;98.70
64951;DHT22;51482;47.014;7.652;2023-02-26T14:06:50;0.70;98.70
64951;DHT22;51482;47.014;7.652;2023-02-26T14:22:31;0.70;99.40
64951;DHT22;51482;47.014;7.652;2023-02-26T14:25:17;1.20;98.70
64951;DHT22;51482;47.014;7.652;2023-02-26T14:27:45;0.60;98.50
64951;DHT22;51482;47.014;7.652;2023-02-26T14:30:24;1.10;98.30
64951;DHT22;51482;47.014;7.652;2023-02-26T14:33:25;1.10;99.20
64951;DHT22;51482;47.014;7.652;2023-02-26T14:35:52;1.20;98.30
64951;DHT22;51482;47.014;7.652;2023-02-26T14:38:25;0.50;97.40
64951;DHT22;51482;47.014;7.652;2023-02-26T14:40:58;1.90;98.20
64951;DHT22;51482;47.014;7.652;2023-02-26T14:43:40;1.40;97.90
64951;DHT22;51482;47.014;7.652;2023-02-26T14:46:08;0.70;97.80
64951;DHT22;51482;47.014;7.652;2023-02-26T14:48:35;1.30;98.50
64951;DHT22;51482;47.014;7.652;2023-02-26T14:53:49;1.40;98.00
64951;DHT22;51482;47.014;7.652;2023-02-26T15:07:34;0.90;98.50
64951;DHT22;51482;47.014;7.652;2023-02-26T15:15:56;0.70;98.90
64951;DHT22;51482;47.014;7.652;2023-02-26T15:21:40;0.70;97.70
64951;DHT22;51482;47.014;7.652;2023-02-26T15:24:11;0.70;97.50
64951;DHT22;51482;47.014;7.652;2023-02-26T15:26:47;1.40;97.00
64951;DHT22;51482;47.014;7.652;2023-02-26T15:29:14;1.40;97.30
64951;DHT22;51482;47.014;7.652;2023-02-26T15:31:46;0.80;96.40
64951;DHT22;51482;47.014;7.652;2023-02-26T15:34:19;1.30;96.30
64951;DHT22;51482;47.014;7.652;2023-02-26T15:36:47;1.40;98.30
64951;DHT22;51482;47.014;7.652;2023-02-26T15:39:15;0.60;98.50
64951;DHT22;51482;47.014;7.652;2023-02-26T15:41:42;1.20;98.00
64951;DHT22;51482;47.014;7.652;2023-02-26T15:44:12;1.40;98.80
64951;DHT22;51482;47.014;7.652;2023-02-26T15:46:44;1.30;98.10
64951;DHT22;51482;47.014;7.652;2023-02-26T15:49:28;1.50;98.20
64951;DHT22;51482;47.014;7.652;2023-02-26T15:51:55;0.50;99.40
64951;DHT22;51482;47.014;7.652;2023-02-26T15:54:23;1.10;99.90
64951;DHT22;51482;47.014;7.652;2023-02-26T15:56:50;1.00;99.90
64951;DHT22;51482;47.014;7.652;2023-02-26T15:59:24;0.90;99.90
64951;DHT22;51482;47.014;7.652;2023-02-26T16:01:51;0.90;99.90
64951;DHT22;51482;47.014;7.652;2023-02-26T16:04:19;0.30;99.90
64951;DHT22;51482;47.014;7.652;2023-02-26T16:06:47;0.50;99.90
64951;DHT22;51482;47.014;7.652;2023-02-26T16:09:19;0.80;99.90
64951;DHT22;51482;47.014;7.652;2023-02-26T16:11:46;0.90;99.10
64951;DHT22;51482;47.014;7.652;2023-02-26T16:14:18;0.70;99.30
64951;DHT22;51482;47.014;7.652;2023-02-26T16:16:47;0.70;99.30
64951;DHT22;51482;47.014;7.652;2023-02-26T16:19:20;0.90;99.50
64951;DHT22;51482;47.014;7.652;2023-02-26T16:21:51;0.00;99.10
64951;DHT22;51482;47.014;7.652;2023-02-26T16:24:19;0.80;99.70
64951;DHT22;51482;47.014;7.652;2023-02-26T16:26:55;0.90;99.00
64951;DHT22;51482;47.014;7.652;2023-02-26T16:29:28;0.80;99.10
64951;DHT22;51482;47.014;7.652;2023-02-26T16:31:56;0.80;99.50
64951;DHT22;51482;47.014;7.652;2023-02-26T16:34:40;0.80;99.00
64951;DHT22;51482;47.014;7.652;2023-02-26T16:37:24;0.20;98.20
64951;DHT22;51482;47.014;7.652;2023-02-26T16:39:56;0.30;98.60
64951;DHT22;51482;47.014;7.652;2023-02-26T16:42:35;-0.10;99.20
64951;DHT22;51482;47.014;7.652;2023-02-26T16:45:16;0.90;99.20
64951;DHT22;51482;47.014;7.652;2023-02-26T16:47:44;0.90;99.90
64951;DHT22;51482;47.014;7.652;2023-02-26T16:50:29;0.90;99.90
64951;DHT22;51482;47.014;7.652;2023-02-26T16:53:22;0.90;99.90
64951;DHT22;51482;47.014;7.652;2023-02-26T16:55:50;1.00;99.90
64951;DHT22;51482;47.014;7.652;2023-02-26T16:58:17;0.90;99.90
64951;DHT22;51482;47.014;7.652;2023-02-26T17:00:44;0.80;99.90
64951;DHT22;51482;47.014;7.652;2023-02-26T17:03:14;0.90;99.90
64951;DHT22;51482;47.014;7.652;2023-02-26T17:05:48;0.80;99.90
64951;DHT22;51482;47.014;7.652;2023-02-26T17:08:19;0.80;99.90
64951;DHT22;51482;47.014;7.652;2023-02-26T17:10:48;0.80;99.90
64951;DHT22;51482;47.014;7.652;2023-02-26T17:13:28;0.90;99.90
64951;DHT22;51482;47.014;7.652;2023-02-26T17:15:58;-0.30;99.90
64951;DHT22;51482;47.014;7.652;2023-02-26T17:18:23;1.10;99.90
64951;DHT22;51482;47.014;7.652;2023-02-26T17:20:49;1.00;99.90
64951;DHT22;51482;47.014;7.652;2023-02-26T17:23:16;1.00;99.90
64951;DHT22;51482;47.014;7.652;2023-02-26T17:25:46;1.00;99.90
64951;DHT22;51482;47.014;7.652;2023-02-26T17:28:20;0.40;99.90
64951;DHT22;51482;47.014;7.652;2023-02-26T17:30:45;0.40;99.90
64951;DHT22;51482;47.014;7.652;2023-02-26T17:33:12;1.00;99.90
64951;DHT22;51482;47.014;7.652;2023-02-26T17:35:38;0.40;99.90
64951;DHT22;51482;47.014;7.652;2023-02-26T17:38:04;1.00;99.90
64951;DHT22;51482;47.014;7.652;2023-02-26T17:40:33;0.90;99.90
64951;DHT22;51482;47.014;7.652;2023-02-26T17:43:01;1.00;99.90
64951;DHT22;51482;47.014;7.652;2023-02-26T17:45:29;0.80;99.90
64951;DHT22;51482;47.014;7.652;2023-02-26T17:47:55;0.40;99.90
64951;DHT22;51482;47.014;7.652;2023-02-26T17:50:28;-0.30;99.90
64951;DHT22;51482;47.014;7.652;2023-02-26T17:52:56;0.90;99.90
64951;DHT22;51482;47.014;7.652;2023-02-26T17:55:22;0.90;99.90
64951;DHT22;51482;47.014;7.652;2023-02-26T17:57:47;0.80;99.90
64951;DHT22;51482;47.014;7.652;2023-02-26T18:00:15;0.80;99.90
64951;DHT22;51482;47.014;7.652;2023-02-26T18:02:41;0.30;99.90
64951;DHT22;51482;47.014;7.652;2023-02-26T18:05:07;0.90;99.90
64951;DHT22;51482;47.014;7.652;2023-02-26T18:07:33;0.30;99.90
64951;DHT22;51482;47.014;7.652;2023-02-26T18:09:58;0.60;99.90
64951;DHT22;51482;47.014;7.652;2023-02-26T18:12:24;-0.40;99.90
64951;DHT22;51482;47.014;7.652;2023-02-26T18:14:50;0.40;99.90
64951;DHT22;51482;47.014;7.652;2023-02-26T18:17:25;0.20;99.90
64951;DHT22;51482;47.014;7.652;2023-02-26T18:19:50;0.80;99.90
64951;DHT22;51482;47.014;7.652;2023-02-26T18:22:18;0.10;99.90
64951;DHT22;51482;47.014;7.652;2023-02-26T18:24:44;0.20;99.90
64951;DHT22;51482;47.014;7.652;2023-02-26T18:27:15;0.70;99.90
64951;DHT22;51482;47.014;7.652;2023-02-26T18:29:42;0.80;99.90
64951;DHT22;51482;47.014;7.652;2023-02-26T18:32:21;0.60;99.90
64951;DHT22;51482;47.014;7.652;2023-02-26T18:34:48;0.60;99.90
64951;DHT22;51482;47.014;7.652;2023-02-26T18:37:18;0.70;99.90